createdAt,value
2018-03-08T00:00:24.463Z,2.57
2018-03-08T00:02:53.917Z,2.27
2018-03-08T00:05:23.358Z,2.23
2018-03-08T00:07:52.798Z,2.30
2018-03-08T00:10:22.245Z,2.33
2018-03-08T00:12:51.687Z,2.60
2018-03-08T00:15:21.187Z,2.20
2018-03-08T00:17:50.649Z,2.30
2018-03-08T00:20:20.106Z,2.80
2018-03-08T00:22:49.558Z,2.40
2018-03-08T00:25:19.134Z,2.40
2018-03-08T00:27:48.576Z,2.60
2018-03-08T00:30:18.023Z,2.37
2018-03-08T00:32:47.565Z,2.10
2018-03-08T00:35:17.004Z,2.73
2018-03-08T00:37:46.436Z,2.30
2018-03-08T00:40:15.886Z,2.43
2018-03-08T00:42:45.353Z,2.80
2018-03-08T00:45:14.790Z,2.87
2018-03-08T00:47:44.338Z,3.23
2018-03-08T00:50:13.886Z,3.17
2018-03-08T00:52:43.317Z,3.60
2018-03-08T00:55:12.767Z,3.30
2018-03-08T00:57:42.217Z,3.20
2018-03-08T01:00:11.327Z,3.87
2018-03-08T01:02:40.798Z,2.97
2018-03-08T01:05:10.262Z,2.70
2018-03-08T01:07:39.706Z,2.80
2018-03-08T01:10:09.150Z,3.37
2018-03-08T01:12:38.886Z,2.78
2018-03-08T01:15:08.322Z,2.97
2018-03-08T01:17:37.770Z,3.70
2018-03-08T01:20:07.230Z,2.70
2018-03-08T01:22:36.686Z,2.60
2018-03-08T01:25:06.134Z,2.83
2018-03-08T01:27:35.850Z,2.80
2018-03-08T01:30:05.302Z,2.77
2018-03-08T01:32:34.761Z,3.10
2018-03-08T01:35:04.217Z,3.30
2018-03-08T01:37:33.656Z,2.97
2018-03-08T01:40:03.094Z,3.30
2018-03-08T01:42:32.529Z,3.10
2018-03-08T01:45:01.977Z,3.30
2018-03-08T01:47:31.410Z,3.30
2018-03-08T01:50:00.861Z,3.93
2018-03-08T01:52:30.290Z,3.37
2018-03-08T01:54:59.746Z,3.80
2018-03-08T01:57:29.173Z,3.20
2018-03-08T01:59:58.622Z,3.20
2018-03-08T02:02:28.117Z,3.20
2018-03-08T02:04:57.571Z,2.80
2018-03-08T02:07:27.021Z,3.30
2018-03-08T02:09:56.734Z,3.50
2018-03-08T02:12:26.253Z,3.50
2018-03-08T02:14:55.701Z,3.57
2018-03-08T02:17:25.411Z,3.20
2018-03-08T02:19:54.986Z,3.40
2018-03-08T02:22:24.705Z,3.40
2018-03-08T02:24:54.138Z,2.77
2018-03-08T02:27:23.590Z,3.70
2018-03-08T02:29:53.293Z,3.50
2018-03-08T02:32:23.032Z,2.97
2018-03-08T02:34:52.758Z,2.87
2018-03-08T02:37:22.682Z,3.20
2018-03-08T02:39:52.398Z,2.53
2018-03-08T02:42:22.122Z,2.90
2018-03-08T02:44:51.831Z,3.10
2018-03-08T02:47:21.567Z,2.20
2018-03-08T02:49:51.289Z,2.33
2018-03-08T02:52:21.039Z,2.47
2018-03-08T02:54:50.734Z,2.75
2018-03-08T02:57:20.467Z,2.83
2018-03-08T02:59:50.178Z,2.83
2018-03-08T03:02:19.890Z,3.00
2018-03-08T03:04:49.602Z,2.95
2018-03-08T03:07:19.319Z,2.55
2018-03-08T03:09:49.210Z,2.35
2018-03-08T03:12:19.066Z,2.83
2018-03-08T03:14:48.789Z,2.83
2018-03-08T03:17:18.501Z,2.90
2018-03-08T03:19:48.251Z,2.45
2018-03-08T03:22:18.021Z,2.70
2018-03-08T03:24:47.802Z,2.67
2018-03-08T03:27:17.511Z,3.22
2018-03-08T03:29:47.226Z,3.20
2018-03-08T03:32:16.931Z,3.50
2018-03-08T03:34:46.645Z,3.45
2018-03-08T03:37:16.349Z,3.45
2018-03-08T03:39:46.066Z,3.10
2018-03-08T03:42:15.777Z,2.90
2018-03-08T03:44:45.494Z,3.33
2018-03-08T03:47:15.206Z,3.25
2018-03-08T03:49:44.993Z,2.90
2018-03-08T03:52:14.717Z,3.40
2018-03-08T03:54:44.417Z,3.45
2018-03-08T03:57:14.258Z,3.20
2018-03-08T03:59:43.950Z,3.30
2018-03-08T04:02:13.670Z,3.53
2018-03-08T04:04:43.397Z,3.30
2018-03-08T04:07:13.131Z,3.10
2018-03-08T04:09:42.869Z,3.67
2018-03-08T04:12:12.308Z,4.45
2018-03-08T04:14:42.186Z,4.25
2018-03-08T04:17:11.922Z,4.05
2018-03-08T04:19:41.650Z,5.05
2018-03-08T04:22:11.366Z,5.37
2018-03-08T04:24:41.277Z,5.90
2018-03-08T04:27:10.986Z,5.87
2018-03-08T04:29:40.890Z,5.18
2018-03-08T04:32:10.626Z,4.87
2018-03-08T04:34:40.358Z,5.45
2018-03-08T04:37:10.069Z,5.25
2018-03-08T04:39:39.791Z,5.12
2018-03-08T04:42:09.648Z,4.70
2018-03-08T04:44:39.362Z,5.30
2018-03-08T04:47:09.070Z,5.55
2018-03-08T04:49:38.465Z,5.93
2018-03-08T04:52:08.174Z,5.53
2018-03-08T04:54:37.895Z,5.85
2018-03-08T04:57:07.597Z,4.95
2018-03-08T04:59:37.326Z,5.15
2018-03-08T05:02:06.710Z,4.68
2018-03-08T05:04:36.463Z,4.62
2018-03-08T05:07:06.194Z,5.68
2018-03-08T05:09:35.969Z,5.18
2018-03-08T05:12:05.680Z,5.12
2018-03-08T05:14:35.406Z,5.18
2018-03-08T05:17:05.290Z,5.50
2018-03-08T05:19:35.002Z,5.32
2018-03-08T05:22:04.753Z,4.90
2018-03-08T05:24:34.466Z,4.97
2018-03-08T05:27:04.187Z,5.30
2018-03-08T05:29:33.886Z,4.95
2018-03-08T05:32:03.877Z,4.62
2018-03-08T05:34:33.594Z,4.45
2018-03-08T05:37:03.310Z,5.00
2018-03-08T05:39:33.181Z,4.85
2018-03-08T05:42:02.912Z,5.00
2018-03-08T05:44:32.626Z,5.30
2018-03-08T05:47:02.499Z,5.57
2018-03-08T05:49:32.269Z,4.18
2018-03-08T05:52:01.967Z,4.20
2018-03-08T05:54:31.694Z,4.53
2018-03-08T05:57:01.400Z,5.05
2018-03-08T05:59:31.130Z,5.18
2018-03-08T06:02:00.837Z,5.37
2018-03-08T06:04:30.577Z,5.10
2018-03-08T06:07:00.309Z,4.78
2018-03-08T06:09:30.059Z,5.05
2018-03-08T06:11:59.952Z,4.32
2018-03-08T06:14:29.686Z,4.03
2018-03-08T06:16:59.391Z,4.03
2018-03-08T06:19:29.105Z,3.92
2018-03-08T06:21:58.807Z,4.05
2018-03-08T06:24:28.523Z,4.55
2018-03-08T06:26:58.250Z,4.25
2018-03-08T06:29:27.770Z,4.32
2018-03-08T06:31:57.497Z,4.40
2018-03-08T06:34:27.246Z,4.07
2018-03-08T06:36:56.974Z,3.78
2018-03-08T06:39:26.687Z,3.53
2018-03-08T06:41:56.406Z,3.42
2018-03-08T06:44:26.101Z,3.53
2018-03-08T06:46:55.890Z,3.55
2018-03-08T06:49:25.739Z,2.75
2018-03-08T06:51:55.458Z,3.15
2018-03-08T06:54:25.983Z,2.75
2018-03-08T06:56:55.803Z,3.05
2018-03-08T06:59:25.522Z,3.60
2018-03-08T07:01:55.226Z,3.03
2018-03-08T07:04:24.942Z,3.12
2018-03-08T07:06:54.870Z,2.95
2018-03-08T07:09:24.742Z,2.47
2018-03-08T07:11:54.453Z,2.95
2018-03-08T07:14:24.189Z,3.55
2018-03-08T07:16:53.937Z,3.40
2018-03-08T07:19:23.647Z,2.22
2018-03-08T07:21:53.372Z,2.42
2018-03-08T07:24:23.138Z,2.35
2018-03-08T07:26:52.867Z,2.47
2018-03-08T07:29:22.664Z,2.40
2018-03-08T07:31:52.450Z,2.50
2018-03-08T07:34:22.158Z,2.40
2018-03-08T07:36:51.886Z,3.22
2018-03-08T07:39:21.359Z,4.40
2018-03-08T07:41:50.807Z,2.90
2018-03-08T07:44:20.523Z,1.90
2018-03-08T07:46:49.971Z,2.27
2018-03-08T07:49:19.427Z,2.67
2018-03-08T07:51:48.877Z,2.70
2018-03-08T07:54:18.528Z,2.20
2018-03-08T07:56:47.970Z,2.53
2018-03-08T07:59:17.602Z,3.00
2018-03-08T08:01:47.074Z,2.57
2018-03-08T08:04:22.085Z,2.30
2018-03-08T08:06:57.218Z,3.00
2018-03-08T08:09:26.870Z,2.70
2018-03-08T08:11:56.303Z,2.40
2018-03-08T08:14:25.776Z,2.40
2018-03-08T08:16:55.207Z,2.80
2018-03-08T08:19:24.658Z,2.40
2018-03-08T08:21:54.112Z,2.73
2018-03-08T08:24:23.567Z,2.80
2018-03-08T08:26:52.993Z,2.23
2018-03-08T08:29:22.462Z,2.70
2018-03-08T08:31:51.926Z,3.00
2018-03-08T08:34:21.406Z,2.60
2018-03-08T08:36:50.842Z,3.10
2018-03-08T08:39:20.316Z,5.00
2018-03-08T08:41:49.768Z,2.53
2018-03-08T08:44:19.246Z,2.40
2018-03-08T08:46:48.702Z,3.07
2018-03-08T08:49:18.156Z,2.10
2018-03-08T08:51:47.586Z,2.60
2018-03-08T08:54:17.150Z,2.83
2018-03-08T08:56:46.670Z,2.00
2018-03-08T08:59:16.339Z,2.17
2018-03-08T09:01:45.782Z,2.47
2018-03-08T09:04:15.247Z,2.70
2018-03-08T09:06:44.706Z,2.50
2018-03-08T09:09:14.227Z,2.67
2018-03-08T09:11:43.666Z,2.87
2018-03-08T09:14:13.109Z,2.00
2018-03-08T09:16:42.557Z,2.43
2018-03-08T09:19:12.010Z,2.50
2018-03-08T09:21:41.452Z,3.07
2018-03-08T09:24:10.922Z,2.57
2018-03-08T09:26:40.550Z,2.43
2018-03-08T09:29:09.998Z,4.77
2018-03-08T09:31:39.515Z,2.17
2018-03-08T09:34:08.966Z,2.37
2018-03-08T09:36:38.425Z,2.10
2018-03-08T09:39:07.873Z,2.30
2018-03-08T09:41:37.438Z,4.00
2018-03-08T09:44:06.878Z,2.63
2018-03-08T09:46:36.330Z,2.87
2018-03-08T09:49:05.835Z,2.40
2018-03-08T09:51:35.307Z,2.40
2018-03-08T09:54:04.751Z,2.30
2018-03-08T09:56:34.202Z,1.90
2018-03-08T09:59:03.666Z,1.20
2018-03-08T10:01:33.282Z,1.83
2018-03-08T10:04:02.791Z,2.83
2018-03-08T10:06:32.342Z,2.03
2018-03-08T10:09:01.780Z,1.70
2018-03-08T10:11:31.234Z,1.83
2018-03-08T10:14:00.677Z,2.03
2018-03-08T10:16:30.126Z,1.70
2018-03-08T10:18:59.566Z,1.83
2018-03-08T10:21:44.453Z,1.70
2018-03-08T10:23:58.671Z,1.33
2018-03-08T10:26:28.126Z,1.73
2018-03-08T10:28:57.574Z,1.50
2018-03-08T10:31:27.028Z,1.70
2018-03-08T10:33:56.466Z,1.60
2018-03-08T10:36:25.915Z,1.30
2018-03-08T10:38:55.371Z,1.23
2018-03-08T10:43:54.654Z,2.20
2018-03-08T10:46:24.090Z,1.50
2018-03-08T10:51:23.158Z,1.10
2018-03-08T10:53:52.718Z,1.10
2018-03-08T10:56:22.158Z,1.50
2018-03-08T10:58:51.602Z,1.20
2018-03-08T11:01:25.686Z,1.60
2018-03-08T11:03:54.945Z,1.50
2018-03-08T11:06:28.401Z,1.63
2018-03-08T11:08:57.860Z,1.63
2018-03-08T11:11:27.384Z,1.83
2018-03-08T11:13:56.811Z,1.60
2018-03-08T11:16:26.267Z,1.50
2018-03-08T11:18:55.694Z,2.10
2018-03-08T11:21:25.322Z,1.30
2018-03-08T11:23:54.811Z,1.20
2018-03-08T11:26:24.268Z,1.63
2018-03-08T11:28:53.724Z,1.23
2018-03-08T11:31:23.153Z,1.07
2018-03-08T11:33:52.401Z,1.07
2018-03-08T11:36:21.839Z,1.30
2018-03-08T11:38:51.301Z,1.10
2018-03-08T11:41:20.731Z,1.70
2018-03-08T11:43:50.177Z,1.50
2018-03-08T11:46:21.495Z,1.27
2018-03-08T11:48:51.000Z,0.97
2018-03-08T11:51:20.432Z,1.10
2018-03-08T11:53:49.894Z,1.30
2018-03-08T11:56:19.318Z,1.20
2018-03-08T11:58:48.782Z,1.20
2018-03-08T12:01:18.244Z,1.20
2018-03-08T12:03:47.886Z,1.17
2018-03-08T12:06:17.471Z,1.40
2018-03-08T12:08:47.022Z,1.57
2018-03-08T12:11:16.461Z,1.30
2018-03-08T12:13:45.962Z,1.00
2018-03-08T12:16:15.405Z,1.00
2018-03-08T12:18:44.834Z,1.10
2018-03-08T12:21:14.282Z,1.20
2018-03-08T12:23:43.701Z,1.87
2018-03-08T12:26:13.163Z,1.20
2018-03-08T12:28:42.607Z,1.17
2018-03-08T12:31:12.081Z,1.10
2018-03-08T12:33:41.515Z,1.33
2018-03-08T12:36:10.982Z,1.10
2018-03-08T12:38:40.422Z,1.10
2018-03-08T12:41:09.865Z,1.37
2018-03-08T12:43:39.310Z,1.00
2018-03-08T12:46:08.774Z,1.20
2018-03-08T12:48:38.267Z,1.23
2018-03-08T12:51:08.014Z,1.20
2018-03-08T12:53:37.479Z,1.60
2018-03-08T12:56:06.905Z,1.03
2018-03-08T12:58:36.358Z,1.10
2018-03-08T13:01:05.886Z,1.23
2018-03-08T13:03:35.339Z,1.13
2018-03-08T13:06:04.782Z,1.60
2018-03-08T13:08:34.226Z,1.10
2018-03-08T13:11:03.660Z,1.10
2018-03-08T13:13:33.122Z,1.40
2018-03-08T13:16:02.586Z,0.93
2018-03-08T13:18:32.026Z,1.10
2018-03-08T13:21:01.474Z,0.70
2018-03-08T13:23:30.905Z,1.30
2018-03-08T13:26:00.358Z,1.03
2018-03-08T13:28:29.798Z,0.90
2018-03-08T13:30:59.234Z,1.30
2018-03-08T13:33:28.665Z,1.10
2018-03-08T13:35:58.262Z,1.00
2018-03-08T13:38:27.707Z,1.20
2018-03-08T13:40:57.158Z,1.13
2018-03-08T13:43:26.582Z,1.30
2018-03-08T13:45:56.050Z,0.80
2018-03-08T13:48:25.490Z,1.63
2018-03-08T13:50:54.937Z,1.17
2018-03-08T13:53:24.383Z,0.87
2018-03-08T13:55:53.991Z,1.10
2018-03-08T13:58:23.470Z,1.00
2018-03-08T14:00:52.968Z,0.83
2018-03-08T14:03:22.409Z,1.30
2018-03-08T14:05:51.836Z,1.47
2018-03-08T14:08:21.321Z,2.00
2018-03-08T14:10:50.889Z,1.30
2018-03-08T14:13:20.557Z,1.80
2018-03-08T14:15:49.982Z,1.13
2018-03-08T14:18:19.425Z,1.13
2018-03-08T14:20:48.849Z,1.40
2018-03-08T14:23:18.293Z,1.20
2018-03-08T14:25:47.738Z,1.40
2018-03-08T14:28:17.174Z,1.33
2018-03-08T14:30:46.714Z,1.20
2018-03-08T14:33:16.274Z,2.00
2018-03-08T14:35:45.747Z,1.40
2018-03-08T14:38:15.391Z,1.30
2018-03-08T14:40:44.854Z,1.10
2018-03-08T14:43:14.391Z,1.10
2018-03-08T14:45:43.818Z,1.03
2018-03-08T14:48:13.263Z,1.53
2018-03-08T14:50:42.718Z,1.27
2018-03-08T14:53:12.149Z,0.97
2018-03-08T14:55:41.598Z,1.60
2018-03-08T14:58:11.057Z,1.40
2018-03-08T15:00:40.505Z,1.43
2018-03-08T15:03:09.933Z,2.20
2018-03-08T15:05:39.397Z,1.40
2018-03-08T15:08:08.826Z,1.17
2018-03-08T15:10:38.375Z,1.20
2018-03-08T15:13:07.812Z,1.10
2018-03-08T15:15:37.261Z,1.33
2018-03-08T15:18:06.702Z,1.20
2018-03-08T15:20:36.174Z,1.70
2018-03-08T15:23:05.634Z,1.10
2018-03-08T15:25:35.082Z,1.63
2018-03-08T15:28:04.606Z,1.40
2018-03-08T15:30:34.241Z,1.30
2018-03-08T15:33:03.683Z,1.57
2018-03-08T15:35:33.246Z,1.40
2018-03-08T15:38:02.714Z,1.30
2018-03-08T15:40:32.178Z,1.17
2018-03-08T15:43:01.618Z,0.80
2018-03-08T15:45:31.105Z,0.70
2018-03-08T15:48:00.569Z,0.83
2018-03-08T15:50:30.004Z,0.90
2018-03-08T15:52:59.481Z,0.80
2018-03-08T15:55:28.933Z,0.90
2018-03-08T15:57:58.414Z,0.77
2018-03-08T16:00:27.863Z,0.63
2018-03-08T16:02:57.355Z,0.80
2018-03-08T16:05:26.802Z,0.80
2018-03-08T16:08:13.738Z,0.90
2018-03-08T16:10:43.170Z,1.00
2018-03-08T16:13:12.611Z,1.37
2018-03-08T16:15:42.047Z,1.63
2018-03-08T16:18:11.498Z,1.60
2018-03-08T16:20:40.925Z,1.53
2018-03-08T16:23:10.377Z,1.10
2018-03-08T16:25:39.802Z,1.40
2018-03-08T16:28:09.266Z,1.23
2018-03-08T16:30:38.718Z,1.40
2018-03-08T16:33:08.160Z,0.93
2018-03-08T16:35:37.598Z,1.33
2018-03-08T16:38:07.027Z,1.20
2018-03-08T16:40:36.498Z,1.77
2018-03-08T16:43:05.952Z,1.53
2018-03-08T16:45:35.425Z,1.77
2018-03-08T16:48:04.854Z,1.73
2018-03-08T16:50:34.430Z,1.80
2018-03-08T16:53:03.870Z,2.20
2018-03-08T16:55:33.313Z,2.67
2018-03-08T16:58:02.760Z,2.47
2018-03-08T17:00:32.349Z,1.80
2018-03-08T17:03:01.822Z,1.77
2018-03-08T17:05:31.569Z,1.60
2018-03-08T17:08:01.012Z,1.67
2018-03-08T17:10:30.479Z,1.83
2018-03-08T17:12:59.953Z,1.70
2018-03-08T17:15:29.396Z,1.80
2018-03-08T17:17:58.861Z,1.80
2018-03-08T17:20:28.302Z,1.77
2018-03-08T17:22:57.743Z,1.80
2018-03-08T17:25:27.190Z,1.50
2018-03-08T17:27:56.649Z,1.30
2018-03-08T17:30:26.084Z,3.13
2018-03-08T17:32:55.538Z,1.93
2018-03-08T17:35:24.986Z,2.20
2018-03-08T17:37:54.479Z,1.60
2018-03-08T17:40:23.935Z,1.80
2018-03-08T17:42:53.398Z,2.20
2018-03-08T17:45:22.839Z,2.30
2018-03-08T17:47:52.305Z,1.93
2018-03-08T17:50:21.735Z,1.83
2018-03-08T17:52:51.211Z,2.07
2018-03-08T17:55:20.671Z,2.30
2018-03-08T17:57:50.123Z,2.23
2018-03-08T18:00:19.556Z,2.00
2018-03-08T18:02:48.996Z,1.90
2018-03-08T18:05:18.460Z,1.87
2018-03-08T18:07:47.898Z,1.50
2018-03-08T18:10:17.363Z,2.00
2018-03-08T18:12:46.799Z,2.13
2018-03-08T18:15:16.279Z,1.87
2018-03-08T18:17:45.718Z,2.43
2018-03-08T18:20:15.226Z,2.10
2018-03-08T18:22:44.859Z,2.20
2018-03-08T18:25:14.302Z,2.13
2018-03-08T18:27:43.780Z,2.50
2018-03-08T18:30:13.426Z,2.13
2018-03-08T18:32:42.875Z,2.10
2018-03-08T18:35:12.319Z,2.80
2018-03-08T18:37:41.771Z,3.20
2018-03-08T18:40:11.250Z,2.70
2018-03-08T18:42:40.722Z,3.37
2018-03-08T18:45:10.191Z,3.10
2018-03-08T18:47:39.807Z,2.80
2018-03-08T18:50:09.263Z,4.23
2018-03-08T18:52:38.742Z,3.00
2018-03-08T18:55:08.177Z,2.30
2018-03-08T18:57:37.640Z,2.27
2018-03-08T19:00:06.747Z,2.30
2018-03-08T19:02:36.221Z,3.17
2018-03-08T19:05:05.658Z,2.77
2018-03-08T19:07:35.129Z,2.33
2018-03-08T19:10:04.630Z,3.30
2018-03-08T19:12:34.098Z,2.63
2018-03-08T19:15:03.602Z,3.23
2018-03-08T19:17:33.083Z,2.90
2018-03-08T19:20:02.562Z,3.40
2018-03-08T19:22:32.009Z,3.93
2018-03-08T19:25:01.466Z,2.57
2018-03-08T19:27:30.907Z,3.00
2018-03-08T19:30:00.365Z,2.90
2018-03-08T19:32:29.831Z,3.23
2018-03-08T19:34:59.490Z,3.17
2018-03-08T19:37:29.034Z,2.30
2018-03-08T19:39:58.510Z,2.90
2018-03-08T19:42:27.971Z,2.77
2018-03-08T19:44:57.446Z,3.27
2018-03-08T19:47:26.562Z,2.80
2018-03-08T19:49:56.033Z,2.90
2018-03-08T19:52:25.495Z,2.40
2018-03-08T19:54:54.943Z,2.67
2018-03-08T19:57:24.414Z,2.40
2018-03-08T19:59:53.855Z,2.60
2018-03-08T20:02:23.299Z,2.40
2018-03-08T20:04:52.735Z,5.00
2018-03-08T20:07:22.221Z,3.67
2018-03-08T20:09:51.666Z,2.40
2018-03-08T20:12:21.120Z,2.20
2018-03-08T20:14:50.575Z,2.90
2018-03-08T20:17:20.034Z,2.50
2018-03-08T20:19:49.481Z,2.33
2018-03-08T20:22:18.943Z,2.87
2018-03-08T20:24:48.419Z,2.63
2018-03-08T20:27:17.875Z,2.60
2018-03-08T20:29:47.341Z,3.93
2018-03-08T20:32:16.830Z,2.30
2018-03-08T20:34:46.285Z,2.57
2018-03-08T20:37:15.729Z,2.17
2018-03-08T20:39:45.178Z,2.20
2018-03-08T20:42:14.635Z,1.97
2018-03-08T20:44:44.083Z,2.40
2018-03-08T20:47:13.547Z,2.13
2018-03-08T20:49:43.012Z,2.10
2018-03-08T20:52:12.474Z,2.47
2018-03-08T20:54:41.967Z,2.40
2018-03-08T20:57:11.454Z,2.30
2018-03-08T20:59:40.914Z,2.10
2018-03-08T21:02:10.104Z,1.90
2018-03-08T21:04:39.542Z,1.60
2018-03-08T21:07:09.086Z,1.83
2018-03-08T21:09:38.523Z,2.13
2018-03-08T21:12:07.948Z,1.97
2018-03-08T21:14:37.578Z,1.77
2018-03-08T21:17:07.104Z,2.70
2018-03-08T21:19:36.585Z,1.90
2018-03-08T21:22:06.069Z,2.20
2018-03-08T21:24:35.569Z,1.47
2018-03-08T21:27:05.049Z,2.40
2018-03-08T21:29:34.528Z,1.70
2018-03-08T21:32:03.626Z,1.93
2018-03-08T21:34:33.082Z,2.10
2018-03-08T21:37:02.526Z,2.10
2018-03-08T21:39:31.986Z,2.30
2018-03-08T21:42:01.413Z,1.70
2018-03-08T21:44:30.902Z,1.60
2018-03-08T21:47:00.385Z,1.73
2018-03-08T21:49:29.850Z,1.67
2018-03-08T21:51:59.270Z,2.03
2018-03-08T21:54:28.743Z,1.90
2018-03-08T21:56:58.377Z,1.30
2018-03-08T21:59:27.929Z,1.50
2018-03-08T22:01:57.426Z,1.97
2018-03-08T22:04:26.862Z,1.60
2018-03-08T22:06:56.359Z,1.93
2018-03-08T22:09:25.801Z,1.77
2018-03-08T22:11:55.448Z,2.00
2018-03-08T22:14:24.890Z,1.70
2018-03-08T22:16:54.362Z,2.30
2018-03-08T22:19:23.830Z,1.93
2018-03-08T22:21:53.336Z,2.50
2018-03-08T22:24:22.793Z,2.03
2018-03-08T22:26:52.250Z,1.80
2018-03-08T22:29:21.878Z,2.30
2018-03-08T22:31:51.314Z,1.83
2018-03-08T22:34:20.764Z,1.83
2018-03-08T22:36:50.202Z,2.00
2018-03-08T22:39:19.925Z,1.77
2018-03-08T22:41:49.367Z,2.20
2018-03-08T22:44:18.829Z,2.23
2018-03-08T22:46:48.265Z,2.03
2018-03-08T22:49:17.809Z,1.67
2018-03-08T22:51:47.310Z,2.50
2018-03-08T22:54:16.753Z,2.50
2018-03-08T22:56:46.184Z,2.10
2018-03-08T22:59:15.648Z,2.57
2018-03-08T23:01:59.617Z,4.30
2018-03-08T23:04:29.065Z,5.20
2018-03-08T23:06:58.516Z,5.60
2018-03-08T23:09:27.964Z,5.67
2018-03-08T23:11:57.407Z,5.13
2018-03-08T23:14:26.852Z,5.83
2018-03-08T23:16:56.321Z,6.17
2018-03-08T23:19:25.757Z,5.70
2018-03-08T23:21:55.194Z,5.90
2018-03-08T23:24:24.622Z,5.63
2018-03-08T23:26:54.085Z,5.73
2018-03-08T23:29:23.590Z,5.80
2018-03-08T23:31:53.046Z,6.03
2018-03-08T23:34:22.483Z,6.57
2018-03-08T23:36:51.918Z,5.70
2018-03-08T23:39:21.418Z,5.57
2018-03-08T23:41:50.653Z,6.50
2018-03-08T23:44:20.110Z,6.00
2018-03-08T23:46:49.533Z,6.17
2018-03-08T23:49:19.103Z,6.00
2018-03-08T23:51:48.541Z,6.40
2018-03-08T23:54:17.986Z,6.37
2018-03-08T23:56:47.411Z,6.63
2018-03-08T23:59:16.850Z,6.77
